Terminal Aerodrome Forecast
Issued by NWS

Home | Current Version | Previous Version | Text Only | Print | Product List | Glossary On
Versions: 1 2 3 4 5 6 7 8 9 10 11 12 13 14 15 16 17 18 19 20 21
000
FTUS46 KSEW 042340
TAFPAE
TAF
KPAE 042340Z 0500/0524 34006KT P6SM VCTS BKN035CB
     FM051100 16002KT P6SM FEW003 SCT070
     FM051700 21004KT P6SM SCT003 BKN015
     FM052000 24008KT P6SM BKN070=

USA.gov is the U.S. government's official web portal to all federal, state and local government web resources and services.